KCRX/CRX METAR and TAF weather

Enter ICAO airport designator
Station Type Date Time Source
KCRX METAR 2021/09/24 06:15 UTC NOAA

KCRX 240615Z AUTO 00000KT 1 1/4SM BR CLR 11/11 A3010 RMK AO2 VIS 1/2V3


Station Type Date Time Source
KCRX Decoded METAR 2021/09/24 06:15 UTC NOAA

Station name not available
Sep 24, 2021 - 02:15 AM EDT / 2021.09.24 0615 UTC
Wind: Calm:0
Visibility: 1 1/4 mile(s):0
Sky conditions: clear
Weather: mist
Temperature: 51 F (11 C)
Dew Point: 51 F (11 C)
Relative Humidity: 100%
Pressure (altimeter): 30.1 in. Hg (1019 hPa)
ob: KCRX 240615Z AUTO 00000KT 1 1/4SM BR CLR 11/11 A3010 RMK AO2 VIS 1/2V3
cycle: 6

Station Type Date Time Source
KCRX TAF UTC NOAA

Error!

Example: see airport list